createdAt,value
2019-03-17T00:00:22.075Z,18.81
2019-03-17T00:02:49.107Z,18.78
2019-03-17T00:05:16.066Z,18.78
2019-03-17T00:07:43.285Z,18.78
2019-03-17T00:10:10.165Z,18.75
2019-03-17T00:12:37.056Z,18.72
2019-03-17T00:15:05.457Z,18.68
2019-03-17T00:17:32.765Z,18.64
2019-03-17T00:19:59.681Z,18.58
2019-03-17T00:22:26.580Z,18.55
2019-03-17T00:24:53.530Z,18.52
2019-03-17T00:27:20.493Z,18.46
2019-03-17T00:29:47.461Z,18.43
2019-03-17T00:32:14.708Z,18.36
2019-03-17T00:34:44.440Z,18.23
2019-03-17T00:37:10.188Z,18.18
2019-03-17T00:39:38.401Z,18.15
2019-03-17T00:42:05.650Z,18.06
2019-03-17T00:44:34.037Z,17.93
2019-03-17T00:47:01.006Z,17.83
2019-03-17T00:49:28.334Z,17.78
2019-03-17T00:51:55.225Z,17.79
2019-03-17T00:54:22.178Z,17.77
2019-03-17T00:56:49.056Z,17.74
2019-03-17T00:59:17.968Z,17.71
2019-03-17T01:01:45.984Z,17.68
2019-03-17T01:04:12.945Z,17.60
2019-03-17T01:06:39.892Z,17.54
2019-03-17T01:09:06.865Z,17.53
2019-03-17T01:11:34.113Z,17.49
2019-03-17T01:14:01.007Z,17.43
2019-03-17T01:16:27.900Z,17.40
2019-03-17T01:18:55.181Z,17.39
2019-03-17T01:21:22.535Z,17.36
2019-03-17T01:23:49.469Z,17.37
2019-03-17T01:26:16.357Z,17.34
2019-03-17T01:28:43.694Z,17.29
2019-03-17T01:31:11.018Z,17.27
2019-03-17T01:33:38.007Z,17.22
2019-03-17T01:36:05.211Z,17.14
2019-03-17T01:38:32.462Z,17.17
2019-03-17T01:40:59.342Z,17.10
2019-03-17T01:43:26.557Z,16.97
2019-03-17T01:45:53.529Z,16.89
2019-03-17T01:48:20.503Z,16.87
2019-03-17T01:50:47.802Z,16.82
2019-03-17T01:53:14.667Z,16.77
2019-03-17T01:55:41.647Z,16.71
2019-03-17T01:58:09.365Z,16.66
2019-03-17T02:00:36.618Z,16.60
2019-03-17T02:03:03.527Z,16.58
2019-03-17T02:05:30.467Z,16.56
2019-03-17T02:07:57.362Z,16.54
2019-03-17T02:10:24.309Z,16.55
2019-03-17T02:12:51.537Z,16.53
2019-03-17T02:15:18.437Z,16.44
2019-03-17T02:17:45.402Z,16.34
2019-03-17T02:20:12.696Z,16.32
2019-03-17T02:22:39.958Z,16.28
2019-03-17T02:25:06.904Z,16.28
2019-03-17T02:27:33.837Z,16.31
2019-03-17T02:30:01.105Z,16.32
2019-03-17T02:32:28.354Z,16.36
2019-03-17T02:34:55.616Z,16.34
2019-03-17T02:37:22.532Z,16.26
2019-03-17T02:39:49.683Z,16.19
2019-03-17T02:42:16.556Z,16.15
2019-03-17T02:44:43.450Z,16.19
2019-03-17T02:47:10.408Z,16.23
2019-03-17T02:49:37.352Z,16.22
2019-03-17T02:52:04.527Z,16.22
2019-03-17T02:54:31.414Z,16.22
2019-03-17T02:56:58.380Z,16.22
2019-03-17T02:59:25.421Z,16.19
2019-03-17T03:01:52.619Z,16.11
2019-03-17T03:04:19.624Z,16.11
2019-03-17T03:06:46.905Z,16.14
2019-03-17T03:09:13.809Z,16.14
2019-03-17T03:11:40.782Z,16.08
2019-03-17T03:14:07.710Z,16.05
2019-03-17T03:16:34.887Z,16.00
2019-03-17T03:19:01.821Z,15.98
2019-03-17T03:21:28.716Z,15.95
2019-03-17T03:23:55.672Z,15.83
2019-03-17T03:26:23.012Z,15.77
2019-03-17T03:28:50.037Z,15.72
2019-03-17T03:31:17.311Z,15.72
2019-03-17T03:33:44.263Z,15.73
2019-03-17T03:36:11.999Z,15.79
2019-03-17T03:38:39.489Z,15.89
2019-03-17T03:41:06.458Z,15.93
2019-03-17T03:43:33.497Z,15.92
2019-03-17T03:46:00.390Z,15.96
2019-03-17T03:48:27.333Z,15.97
2019-03-17T03:50:54.295Z,15.99
2019-03-17T03:53:21.230Z,15.98
2019-03-17T03:55:48.095Z,15.99
2019-03-17T03:58:15.427Z,15.97
2019-03-17T04:00:42.582Z,16.03
2019-03-17T04:03:09.835Z,16.06
2019-03-17T04:05:36.812Z,16.06
2019-03-17T04:08:04.130Z,16.04
2019-03-17T04:10:31.086Z,16.04
2019-03-17T04:12:58.339Z,16.09
2019-03-17T04:15:26.722Z,16.06
2019-03-17T04:17:53.795Z,16.02
2019-03-17T04:20:20.783Z,16.02
2019-03-17T04:22:49.075Z,16.04
2019-03-17T04:25:15.951Z,15.97
2019-03-17T04:27:42.868Z,15.80
2019-03-17T04:30:09.830Z,15.63
2019-03-17T04:32:36.775Z,15.51
2019-03-17T04:35:03.757Z,15.43
2019-03-17T04:37:31.804Z,15.39
2019-03-17T04:39:58.737Z,15.34
2019-03-17T04:42:25.614Z,15.35
2019-03-17T04:44:52.569Z,15.37
2019-03-17T04:47:19.872Z,15.30
2019-03-17T04:49:46.746Z,15.20
2019-03-17T04:52:14.011Z,15.12
2019-03-17T04:54:40.967Z,15.02
2019-03-17T04:57:08.269Z,14.95
2019-03-17T04:59:35.547Z,14.93
2019-03-17T05:02:02.804Z,14.92
2019-03-17T05:04:29.759Z,14.96
2019-03-17T05:06:56.703Z,14.93
2019-03-17T05:09:23.938Z,14.96
2019-03-17T05:11:51.164Z,14.93
2019-03-17T05:14:18.034Z,14.91
2019-03-17T05:16:44.986Z,14.87
2019-03-17T05:19:11.853Z,14.85
2019-03-17T05:21:39.070Z,14.80
2019-03-17T05:24:06.339Z,14.75
2019-03-17T05:26:33.306Z,14.71
2019-03-17T05:29:00.634Z,14.68
2019-03-17T05:31:27.651Z,14.67
2019-03-17T05:33:54.615Z,14.68
2019-03-17T05:36:21.903Z,14.70
2019-03-17T05:38:49.289Z,14.73
2019-03-17T05:41:16.494Z,14.74
2019-03-17T05:43:43.726Z,14.75
2019-03-17T05:46:10.985Z,14.81
2019-03-17T05:48:38.236Z,14.89
2019-03-17T05:51:05.505Z,14.98
2019-03-17T05:53:32.823Z,15.03
2019-03-17T05:56:00.762Z,15.12
2019-03-17T05:58:27.635Z,15.17
2019-03-17T06:00:54.902Z,15.23
2019-03-17T06:03:22.158Z,15.27
2019-03-17T06:05:49.024Z,15.30
2019-03-17T06:08:16.241Z,15.33
2019-03-17T06:10:43.504Z,15.38
2019-03-17T06:13:10.761Z,15.50
2019-03-17T06:15:37.719Z,15.61
2019-03-17T06:18:04.682Z,15.70
2019-03-17T06:20:31.694Z,15.78
2019-03-17T06:22:58.839Z,15.87
2019-03-17T06:25:26.106Z,15.91
2019-03-17T06:27:53.354Z,15.93
2019-03-17T06:30:20.294Z,15.91
2019-03-17T06:32:47.161Z,16.00
2019-03-17T06:35:14.392Z,16.11
2019-03-17T06:37:41.642Z,16.32
2019-03-17T06:40:08.899Z,16.54
2019-03-17T06:42:35.872Z,16.65
2019-03-17T06:45:03.989Z,16.80
2019-03-17T06:47:30.886Z,16.97
2019-03-17T06:49:57.768Z,17.09
2019-03-17T06:52:24.711Z,17.26
2019-03-17T06:54:51.624Z,17.44
2019-03-17T06:57:18.954Z,17.63
2019-03-17T06:59:46.193Z,17.80
2019-03-17T07:02:13.075Z,18.05
2019-03-17T07:04:39.983Z,18.25
2019-03-17T07:07:06.996Z,18.45
2019-03-17T07:09:34.314Z,18.63
2019-03-17T07:12:01.242Z,18.75
2019-03-17T07:14:28.520Z,18.91
2019-03-17T07:16:55.592Z,19.11
2019-03-17T07:19:22.806Z,19.39
2019-03-17T07:21:49.767Z,19.64
2019-03-17T07:24:17.118Z,19.86
2019-03-17T07:26:44.528Z,20.06
2019-03-17T07:29:11.463Z,20.24
2019-03-17T07:31:38.372Z,20.33
2019-03-17T07:34:05.802Z,20.50
2019-03-17T07:36:32.724Z,20.71
2019-03-17T07:39:11.265Z,20.91
2019-03-17T07:41:29.629Z,21.14
2019-03-17T07:43:56.849Z,21.34
2019-03-17T07:46:23.733Z,21.59
2019-03-17T07:48:50.780Z,21.86
2019-03-17T07:51:17.661Z,22.14
2019-03-17T07:53:44.565Z,22.43
2019-03-17T07:56:11.547Z,22.72
2019-03-17T07:58:38.963Z,22.99
2019-03-17T08:01:06.029Z,23.26
2019-03-17T08:03:32.978Z,23.43
2019-03-17T08:06:00.292Z,23.56
2019-03-17T08:08:27.383Z,23.55
2019-03-17T08:10:54.304Z,23.49
2019-03-17T08:13:21.522Z,23.29
2019-03-17T08:15:48.389Z,23.06
2019-03-17T08:18:15.843Z,22.77
2019-03-17T08:20:42.808Z,22.51
2019-03-17T08:23:09.774Z,22.32
2019-03-17T08:25:36.680Z,22.21
2019-03-17T08:28:03.569Z,22.09
2019-03-17T08:30:30.502Z,21.99
2019-03-17T08:32:57.742Z,21.91
2019-03-17T08:35:25.072Z,21.89
2019-03-17T08:37:52.008Z,21.82
2019-03-17T08:40:18.968Z,21.75
2019-03-17T08:42:45.864Z,21.73
2019-03-17T08:45:12.833Z,21.76
2019-03-17T08:47:40.110Z,21.80
2019-03-17T08:50:06.981Z,21.84
2019-03-17T08:52:34.471Z,21.84
2019-03-17T08:55:01.602Z,21.88
2019-03-17T08:57:29.461Z,21.91
2019-03-17T08:59:56.781Z,21.92
2019-03-17T09:02:24.035Z,21.95
2019-03-17T09:04:50.902Z,21.96
2019-03-17T09:07:18.140Z,21.97
2019-03-17T09:09:45.381Z,21.95
2019-03-17T09:12:12.536Z,21.90
2019-03-17T09:14:39.789Z,21.92
2019-03-17T09:17:14.244Z,21.92
2019-03-17T09:19:35.697Z,21.97
2019-03-17T09:22:02.645Z,22.00
2019-03-17T09:24:29.936Z,21.99
2019-03-17T09:26:57.170Z,22.00
2019-03-17T09:29:24.317Z,22.03
2019-03-17T09:31:51.205Z,21.98
2019-03-17T09:34:18.170Z,21.96
2019-03-17T09:36:45.097Z,21.96
2019-03-17T09:39:11.984Z,21.99
2019-03-17T09:41:39.248Z,22.02
2019-03-17T09:44:06.219Z,22.04
2019-03-17T09:46:33.222Z,22.05
2019-03-17T09:49:00.120Z,22.06
2019-03-17T09:51:27.453Z,22.07
2019-03-17T09:53:54.833Z,22.06
2019-03-17T09:56:21.805Z,22.00
2019-03-17T09:58:48.666Z,22.03
2019-03-17T10:01:15.873Z,22.06
2019-03-17T10:03:43.204Z,22.06
2019-03-17T10:06:10.403Z,22.07
2019-03-17T10:08:37.595Z,21.90
2019-03-17T10:11:04.627Z,22.07
2019-03-17T10:13:31.630Z,22.08
2019-03-17T10:15:58.853Z,22.08
2019-03-17T10:18:25.738Z,22.09
2019-03-17T10:20:52.934Z,22.06
2019-03-17T10:23:20.100Z,22.04
2019-03-17T10:25:47.045Z,22.00
2019-03-17T10:28:13.929Z,22.00
2019-03-17T10:30:41.274Z,22.03
2019-03-17T10:33:08.217Z,22.06
2019-03-17T10:35:38.255Z,22.08
2019-03-17T10:38:05.217Z,22.12
2019-03-17T10:40:32.106Z,22.12
2019-03-17T10:42:59.363Z,22.07
2019-03-17T10:45:26.300Z,22.05
2019-03-17T10:47:54.686Z,22.07
2019-03-17T10:50:22.890Z,22.09
2019-03-17T10:52:50.104Z,22.08
2019-03-17T10:55:17.390Z,22.02
2019-03-17T10:57:44.726Z,22.00
2019-03-17T11:00:11.665Z,22.04
2019-03-17T11:02:38.898Z,22.06
2019-03-17T11:05:05.784Z,22.06
2019-03-17T11:07:32.756Z,22.09
2019-03-17T11:09:59.959Z,22.09
2019-03-17T11:12:27.310Z,22.10
2019-03-17T11:14:54.541Z,22.11
2019-03-17T11:17:21.708Z,22.10
2019-03-17T11:19:48.597Z,22.10
2019-03-17T11:22:15.576Z,22.15
2019-03-17T11:24:42.846Z,22.20
2019-03-17T11:27:11.157Z,22.21
2019-03-17T11:29:38.024Z,22.21
2019-03-17T11:32:06.596Z,22.23
2019-03-17T11:34:33.484Z,22.23
2019-03-17T11:37:00.768Z,22.23
2019-03-17T11:39:37.286Z,22.17
2019-03-17T11:41:56.581Z,22.14
2019-03-17T11:44:23.468Z,22.17
2019-03-17T11:46:50.432Z,22.23
2019-03-17T11:49:17.765Z,22.27
2019-03-17T11:51:44.691Z,22.31
2019-03-17T11:54:11.560Z,22.33
2019-03-17T11:56:39.394Z,22.34
2019-03-17T11:59:06.598Z,22.36
2019-03-17T12:01:33.506Z,22.33
2019-03-17T12:04:00.461Z,22.35
2019-03-17T12:06:27.679Z,22.39
2019-03-17T12:08:54.580Z,22.45
2019-03-17T12:11:21.536Z,22.52
2019-03-17T12:13:48.844Z,22.58
2019-03-17T12:16:15.905Z,22.62
2019-03-17T12:18:43.118Z,22.65
2019-03-17T12:21:10.049Z,22.68
2019-03-17T12:23:36.981Z,22.67
2019-03-17T12:26:04.354Z,22.63
2019-03-17T12:28:31.366Z,22.60
2019-03-17T12:30:58.605Z,22.55
2019-03-17T12:33:25.617Z,22.48
2019-03-17T12:35:55.574Z,22.47
2019-03-17T12:38:22.732Z,22.46
2019-03-17T12:40:49.611Z,22.44
2019-03-17T12:43:16.584Z,22.52
2019-03-17T12:45:43.836Z,22.62
2019-03-17T12:48:10.729Z,22.72
2019-03-17T12:50:37.610Z,22.80
2019-03-17T12:53:07.653Z,22.88
2019-03-17T12:55:33.759Z,22.90
2019-03-17T12:58:00.888Z,22.99
2019-03-17T13:00:28.001Z,23.07
2019-03-17T13:02:56.386Z,23.14
2019-03-17T13:05:23.597Z,23.16
2019-03-17T13:07:50.752Z,23.19
2019-03-17T13:10:17.730Z,23.18
2019-03-17T13:12:45.064Z,23.18
2019-03-17T13:15:12.315Z,23.15
2019-03-17T13:17:39.185Z,23.15
2019-03-17T13:20:06.069Z,23.13
2019-03-17T13:22:33.089Z,23.09
2019-03-17T13:25:00.405Z,23.07
2019-03-17T13:27:27.391Z,23.08
2019-03-17T13:29:54.331Z,23.06
2019-03-17T13:32:21.837Z,23.02
2019-03-17T13:34:49.166Z,23.03
2019-03-17T13:37:16.084Z,23.04
2019-03-17T13:39:43.368Z,22.97
2019-03-17T13:42:10.623Z,22.95
2019-03-17T13:44:37.597Z,22.96
2019-03-17T13:47:04.540Z,23.01
2019-03-17T13:49:31.901Z,23.07
2019-03-17T13:51:58.851Z,23.10
2019-03-17T13:54:26.106Z,23.11
2019-03-17T13:56:53.042Z,23.09
2019-03-17T13:59:19.914Z,23.07
2019-03-17T14:01:46.791Z,23.10
2019-03-17T14:04:13.984Z,23.10
2019-03-17T14:06:41.136Z,23.12
2019-03-17T14:09:08.024Z,23.13
2019-03-17T14:11:35.335Z,23.11
2019-03-17T14:14:02.475Z,23.12
2019-03-17T14:16:29.373Z,23.17
2019-03-17T14:18:56.314Z,23.21
2019-03-17T14:21:24.573Z,23.20
2019-03-17T14:23:52.001Z,23.20
2019-03-17T14:26:19.148Z,23.18
2019-03-17T14:28:46.467Z,23.11
2019-03-17T14:31:13.384Z,23.06
2019-03-17T14:33:40.629Z,23.04
2019-03-17T14:36:07.596Z,23.04
2019-03-17T14:38:34.555Z,23.07
2019-03-17T14:41:01.851Z,23.09
2019-03-17T14:43:29.105Z,23.11
2019-03-17T14:45:56.123Z,23.11
2019-03-17T14:48:23.032Z,23.12
2019-03-17T14:50:50.241Z,23.13
2019-03-17T14:53:17.494Z,23.10
2019-03-17T14:55:44.395Z,23.10
2019-03-17T14:58:11.348Z,23.09
2019-03-17T15:00:38.336Z,23.09
2019-03-17T15:03:05.232Z,23.09
2019-03-17T15:05:32.102Z,23.09
2019-03-17T15:07:59.511Z,23.10
2019-03-17T15:10:26.779Z,23.06
2019-03-17T15:12:53.737Z,22.98
2019-03-17T15:15:21.030Z,22.91
2019-03-17T15:17:48.191Z,22.86
2019-03-17T15:20:15.659Z,22.78
2019-03-17T15:22:42.829Z,22.67
2019-03-17T15:25:10.145Z,22.55
2019-03-17T15:27:37.597Z,22.46
2019-03-17T15:30:04.761Z,22.41
2019-03-17T15:32:31.736Z,22.34
2019-03-17T15:34:58.948Z,22.31
2019-03-17T15:37:25.878Z,22.21
2019-03-17T15:39:52.815Z,22.09
2019-03-17T15:42:19.789Z,22.02
2019-03-17T15:44:47.132Z,21.95
2019-03-17T15:47:14.539Z,21.90
2019-03-17T15:49:41.486Z,21.68
2019-03-17T15:52:08.712Z,21.35
2019-03-17T15:54:35.964Z,21.14
2019-03-17T15:57:03.349Z,20.89
2019-03-17T15:59:30.599Z,20.65
2019-03-17T16:01:57.490Z,20.51
2019-03-17T16:04:24.439Z,20.39
2019-03-17T16:06:51.345Z,20.27
2019-03-17T16:09:18.292Z,20.08
2019-03-17T16:11:45.456Z,19.94
2019-03-17T16:14:12.321Z,19.75
2019-03-17T16:16:39.224Z,19.63
2019-03-17T16:19:06.439Z,19.56
2019-03-17T16:21:33.795Z,19.50
2019-03-17T16:24:01.057Z,19.39
2019-03-17T16:26:28.403Z,19.33
2019-03-17T16:28:55.273Z,19.29
2019-03-17T16:31:22.211Z,19.26
2019-03-17T16:33:49.143Z,19.23
2019-03-17T16:36:16.157Z,19.19
2019-03-17T16:38:43.111Z,19.16
2019-03-17T16:41:12.185Z,19.15
2019-03-17T16:43:39.013Z,19.11
2019-03-17T16:46:06.268Z,19.08
2019-03-17T16:48:33.371Z,19.08
2019-03-17T16:51:00.277Z,19.08
2019-03-17T16:53:28.274Z,19.08
2019-03-17T16:55:55.159Z,19.08
2019-03-17T16:58:22.685Z,19.07
2019-03-17T17:00:49.568Z,19.05
2019-03-17T17:03:16.575Z,19.00
2019-03-17T17:05:43.929Z,18.99
2019-03-17T17:08:11.218Z,19.00
2019-03-17T17:10:39.098Z,18.98
2019-03-17T17:13:07.330Z,18.96
2019-03-17T17:15:34.417Z,18.93
2019-03-17T17:18:01.457Z,18.95
2019-03-17T17:20:30.843Z,18.96
2019-03-17T17:22:57.853Z,18.94
2019-03-17T17:25:25.173Z,18.86
2019-03-17T17:27:52.518Z,18.84
2019-03-17T17:30:19.738Z,18.78
2019-03-17T17:32:46.678Z,18.70
2019-03-17T17:35:13.621Z,18.64
2019-03-17T17:37:40.866Z,18.60
2019-03-17T17:40:08.190Z,18.57
2019-03-17T17:42:35.494Z,18.52
2019-03-17T17:45:02.452Z,18.46
2019-03-17T17:47:29.419Z,18.42
2019-03-17T17:49:57.363Z,18.39
2019-03-17T17:52:24.703Z,18.37
2019-03-17T17:54:51.563Z,18.32
2019-03-17T17:57:18.820Z,18.29
2019-03-17T17:59:46.146Z,18.24
2019-03-17T18:02:13.412Z,18.25
2019-03-17T18:04:40.666Z,18.24
2019-03-17T18:07:07.954Z,18.22
2019-03-17T18:09:34.965Z,18.21
2019-03-17T18:12:02.216Z,18.22
2019-03-17T18:14:30.267Z,18.22
2019-03-17T18:16:57.211Z,18.18
2019-03-17T18:21:59.094Z,18.18
2019-03-17T18:24:26.073Z,18.14
2019-03-17T18:26:53.321Z,18.11
2019-03-17T18:29:20.217Z,18.09
2019-03-17T18:31:47.420Z,18.08
2019-03-17T18:34:14.398Z,18.07
2019-03-17T18:36:41.770Z,18.01
2019-03-17T18:39:08.766Z,18.00
2019-03-17T18:41:35.707Z,18.00
2019-03-17T18:44:02.962Z,18.00
2019-03-17T18:46:29.873Z,18.01
2019-03-17T18:48:56.842Z,18.03
2019-03-17T18:51:25.097Z,17.98
2019-03-17T18:53:52.584Z,17.96
2019-03-17T18:58:48.550Z,17.92
2019-03-17T19:01:15.523Z,17.92
2019-03-17T19:03:42.933Z,17.90
2019-03-17T19:06:09.878Z,17.92
2019-03-17T19:08:38.246Z,17.88
2019-03-17T19:11:05.136Z,17.86
2019-03-17T19:13:32.015Z,17.87
2019-03-17T19:15:59.294Z,17.89
2019-03-17T19:18:26.183Z,17.89
2019-03-17T19:20:53.381Z,17.99
2019-03-17T19:23:21.800Z,18.04
2019-03-17T19:25:48.815Z,17.99
2019-03-17T19:28:16.017Z,17.97
2019-03-17T19:30:43.170Z,18.00
2019-03-17T19:33:11.390Z,18.03
2019-03-17T19:35:38.545Z,17.97
2019-03-17T19:38:06.036Z,17.96
2019-03-17T19:40:32.975Z,17.99
2019-03-17T19:43:00.043Z,17.96
2019-03-17T19:45:26.977Z,17.93
2019-03-17T19:47:54.290Z,17.91
2019-03-17T19:50:21.182Z,17.93
2019-03-17T19:52:48.138Z,17.95
2019-03-17T19:55:15.471Z,17.97
2019-03-17T19:57:42.698Z,17.98
2019-03-17T20:00:09.951Z,18.00
2019-03-17T20:02:37.191Z,18.00
2019-03-17T20:05:04.169Z,18.12
2019-03-17T20:07:31.153Z,18.13
2019-03-17T20:09:58.439Z,18.10
2019-03-17T20:12:25.705Z,18.08
2019-03-17T20:14:52.687Z,18.07
2019-03-17T20:17:19.740Z,18.08
2019-03-17T20:19:46.811Z,18.09
2019-03-17T20:22:13.731Z,18.00
2019-03-17T20:24:40.700Z,17.97
2019-03-17T20:27:07.901Z,17.98
2019-03-17T20:29:34.795Z,17.99
2019-03-17T20:32:02.129Z,17.94
2019-03-17T20:34:29.335Z,17.92
2019-03-17T20:36:56.353Z,17.94
2019-03-17T20:39:23.261Z,17.93
2019-03-17T20:41:50.182Z,17.93
2019-03-17T20:44:17.160Z,17.92
2019-03-17T20:46:44.136Z,17.97
2019-03-17T20:49:11.425Z,17.97
2019-03-17T20:51:38.384Z,17.99
2019-03-17T20:54:05.349Z,18.01
2019-03-17T20:56:32.582Z,18.00
2019-03-17T20:58:59.551Z,18.00
2019-03-17T21:01:26.521Z,18.00
2019-03-17T21:03:53.456Z,17.99
2019-03-17T21:06:20.347Z,17.97
2019-03-17T21:08:47.288Z,17.96
2019-03-17T21:11:14.174Z,17.97
2019-03-17T21:13:46.588Z,17.94
2019-03-17T21:16:10.369Z,17.92
2019-03-17T21:18:37.622Z,17.86
2019-03-17T21:21:04.774Z,17.86
2019-03-17T21:23:31.690Z,17.88
2019-03-17T21:25:59.195Z,17.89
2019-03-17T21:28:27.687Z,17.92
2019-03-17T21:30:55.118Z,17.93
2019-03-17T21:33:22.048Z,17.95
2019-03-17T21:35:48.992Z,17.93
2019-03-17T21:38:16.206Z,17.88
2019-03-17T21:41:01.314Z,17.86
2019-03-17T21:43:11.702Z,17.82
2019-03-17T21:45:38.846Z,17.80
2019-03-17T21:48:05.804Z,17.77
2019-03-17T21:50:33.061Z,17.78
2019-03-17T21:53:00.290Z,17.74
2019-03-17T21:55:27.243Z,17.75
2019-03-17T21:57:54.517Z,17.74
2019-03-17T22:00:21.745Z,17.68
2019-03-17T22:02:49.117Z,17.67
2019-03-17T22:05:16.464Z,17.67
2019-03-17T22:07:49.704Z,17.66
2019-03-17T22:10:12.325Z,17.64
2019-03-17T22:12:39.667Z,17.60
2019-03-17T22:15:06.680Z,17.59
2019-03-17T22:17:33.633Z,17.59
2019-03-17T22:20:00.658Z,17.58
2019-03-17T22:22:28.042Z,17.59
2019-03-17T22:24:55.202Z,17.60
2019-03-17T22:27:22.113Z,17.56
2019-03-17T22:29:49.457Z,17.54
2019-03-17T22:32:16.418Z,17.51
2019-03-17T22:34:43.319Z,17.49
2019-03-17T22:37:10.293Z,17.51
2019-03-17T22:39:37.225Z,17.49
2019-03-17T22:42:04.120Z,17.47
2019-03-17T22:44:31.072Z,17.44
2019-03-17T22:46:58.319Z,17.44
2019-03-17T22:49:25.590Z,17.44
2019-03-17T22:51:52.832Z,17.42
2019-03-17T22:54:20.293Z,17.42
2019-03-17T22:56:47.546Z,17.43
2019-03-17T22:59:14.527Z,17.38
2019-03-17T23:01:41.542Z,17.36
2019-03-17T23:04:08.677Z,17.31
2019-03-17T23:06:35.578Z,17.29
2019-03-17T23:09:02.466Z,17.26
2019-03-17T23:11:30.969Z,17.27
2019-03-17T23:13:58.317Z,17.29
2019-03-17T23:16:25.272Z,17.30
2019-03-17T23:18:52.255Z,17.32
2019-03-17T23:21:19.467Z,17.32
2019-03-17T23:23:46.403Z,17.34
2019-03-17T23:26:13.555Z,17.31
2019-03-17T23:28:40.910Z,17.27
2019-03-17T23:31:07.845Z,17.26
2019-03-17T23:33:34.788Z,17.27
2019-03-17T23:36:01.954Z,17.27
2019-03-17T23:38:29.710Z,17.31
2019-03-17T23:40:56.676Z,17.31
2019-03-17T23:43:23.928Z,17.31
2019-03-17T23:45:51.162Z,17.27
2019-03-17T23:48:18.105Z,17.27
2019-03-17T23:50:45.047Z,17.28
2019-03-17T23:53:12.004Z,17.28
2019-03-17T23:55:39.167Z,17.28
2019-03-17T23:58:06.130Z,17.30
